Time;durP1;ratioP1;P1;durP2;ratioP2;P2;SDS_P1;SDS_P2;PMS_P1;PMS_P2;Temp;Humidity;BMP_temperature;BMP_pressure;BME280_temperature;BME280_humidity;BME280_pressure;Samples;Min_cycle;Max_cycle;Signal;HPM_P1;HPM_P2
2022/10/11 00:02:24;;;;;;;;;;;13.10;87.70;;;;;;5095961;28;20396;-94
2022/10/11 00:04:49;;;;;;;;;;;13.20;88.20;;;;;;5096288;28;19947;-93
2022/10/11 00:07:16;;;;;;;;;;;13.30;88.50;;;;;;5095890;28;19963;-92
2022/10/11 00:09:41;;;;;;;;;;;13.30;88.60;;;;;;5095873;28;19939;-92
2022/10/11 00:12:07;;;;;;;;;;;13.30;88.50;;;;;;5095795;28;20427;-93
2022/10/11 00:14:33;;;;;;;;;;;13.40;88.40;;;;;;5095824;28;19943;-92
2022/10/11 00:16:58;;;;;;;;;;;13.30;88.30;;;;;;5095722;28;19938;-92
2022/10/11 00:19:24;;;;;;;;;;;13.30;88.50;;;;;;5095632;28;19977;-92
2022/10/11 00:21:49;;;;;;;;;;;13.20;88.30;;;;;;5077413;28;20006;-94
2022/10/11 00:24:15;;;;;;;;;;;13.20;88.80;;;;;;5095655;28;20350;-92
2022/10/11 00:26:41;;;;;;;;;;;13.20;89.20;;;;;;5076923;28;19945;-93
2022/10/11 00:29:07;;;;;;;;;;;13.20;89.00;;;;;;5095456;28;19996;-93
2022/10/11 00:31:32;;;;;;;;;;;13.20;88.90;;;;;;5095477;28;19945;-93
2022/10/11 00:33:58;;;;;;;;;;;13.20;88.70;;;;;;5095427;28;20044;-93
2022/10/11 00:36:24;;;;;;;;;;;13.10;88.60;;;;;;5095360;28;20410;-92
2022/10/11 00:38:49;;;;;;;;;;;13.10;88.30;;;;;;5077043;28;20483;-93
2022/10/11 00:41:15;;;;;;;;;;;12.90;88.10;;;;;;5095414;28;20010;-92
2022/10/11 00:43:41;;;;;;;;;;;12.90;88.00;;;;;;5095275;28;20006;-92
2022/10/11 00:46:16;;;;;;;;;;;12.90;88.30;;;;;;5077037;28;20454;-92
2022/10/11 00:48:41;;;;;;;;;;;12.90;89.30;;;;;;5095147;28;19939;-92
2022/10/11 00:51:27;;;;;;;;;;;12.90;90.10;;;;;;5094996;28;20312;-93
2022/10/11 00:53:53;;;;;;;;;;;12.80;90.00;;;;;;5094277;28;19955;-92
2022/10/11 00:56:44;;;;;;;;;;;12.90;89.90;;;;;;5094821;28;19940;-92
2022/10/11 00:59:15;;;;;;;;;;;12.90;90.00;;;;;;5090749;28;19947;-94
2022/10/11 01:01:40;;;;;;;;;;;13.00;89.90;;;;;;5094912;28;19957;-93
2022/10/11 01:04:06;;;;;;;;;;;12.90;89.90;;;;;;5094925;28;19996;-92
2022/10/11 01:06:33;;;;;;;;;;;12.90;90.00;;;;;;5094942;28;20475;-94
2022/10/11 01:08:59;;;;;;;;;;;12.90;89.90;;;;;;5094734;28;19983;-94
2022/10/11 01:11:26;;;;;;;;;;;12.90;89.30;;;;;;5094688;28;19986;-92
2022/10/11 01:14:00;;;;;;;;;;;12.90;89.00;;;;;;5094578;28;19939;-93
2022/10/11 01:16:30;;;;;;;;;;;12.90;89.10;;;;;;5094564;28;19945;-92
2022/10/11 01:19:11;;;;;;;;;;;12.90;89.00;;;;;;5094826;28;20370;-92
2022/10/11 01:22:12;;;;;;;;;;;12.90;88.90;;;;;;5094588;28;19969;-91
2022/10/11 01:24:49;;;;;;;;;;;12.90;88.90;;;;;;5012466;28;20028;-92
2022/10/11 01:27:24;;;;;;;;;;;12.90;89.10;;;;;;5083872;28;19955;-94
2022/10/11 01:29:55;;;;;;;;;;;12.80;88.80;;;;;;5094432;28;20063;-92
2022/10/11 01:32:28;;;;;;;;;;;12.80;88.60;;;;;;5094480;28;19942;-93
2022/10/11 01:34:54;;;;;;;;;;;12.70;88.10;;;;;;5094259;28;19943;-93
2022/10/11 01:37:29;;;;;;;;;;;12.50;88.30;;;;;;5075984;28;20318;-93
2022/10/11 01:39:57;;;;;;;;;;;12.50;89.40;;;;;;5093396;28;19976;-93
2022/10/11 01:42:24;;;;;;;;;;;12.50;89.30;;;;;;5094156;28;19965;-93
2022/10/11 01:44:50;;;;;;;;;;;12.60;89.50;;;;;;5094143;28;19941;-92
2022/10/11 01:47:19;;;;;;;;;;;12.50;89.10;;;;;;5094208;28;19951;-94
2022/10/11 01:49:45;;;;;;;;;;;12.40;88.90;;;;;;5094002;28;19988;-91
2022/10/11 01:52:11;;;;;;;;;;;12.40;89.50;;;;;;5093784;28;19958;-92
2022/10/11 01:54:49;;;;;;;;;;;12.40;89.70;;;;;;5093963;28;20027;-92
2022/10/11 01:57:20;;;;;;;;;;;12.40;89.50;;;;;;5094010;28;19982;-93
2022/10/11 01:59:57;;;;;;;;;;;12.50;89.90;;;;;;5093880;28;20300;-91
2022/10/11 02:02:52;;;;;;;;;;;12.50;90.10;;;;;;5093854;28;20004;-92
2022/10/11 02:05:37;;;;;;;;;;;12.50;90.20;;;;;;5076231;28;19997;-93
2022/10/11 02:08:08;;;;;;;;;;;12.50;90.30;;;;;;5075708;28;20392;-92
2022/10/11 02:10:45;;;;;;;;;;;12.50;90.00;;;;;;5093850;28;19938;-92
2022/10/11 02:13:22;;;;;;;;;;;12.50;89.80;;;;;;5093765;28;19938;-92
2022/10/11 02:15:48;;;;;;;;;;;12.40;89.70;;;;;;5093852;28;19948;-92
2022/10/11 02:18:15;;;;;;;;;;;12.50;89.60;;;;;;5093664;28;19945;-93
2022/10/11 02:20:41;;;;;;;;;;;12.50;89.70;;;;;;5093630;28;19967;-92
2022/10/11 02:23:09;;;;;;;;;;;12.50;89.60;;;;;;5093900;28;19973;-91
2022/10/11 02:25:35;;;;;;;;;;;12.40;89.20;;;;;;5093725;28;20465;-93
2022/10/11 02:28:03;;;;;;;;;;;12.30;88.60;;;;;;5093716;28;19943;-92
2022/10/11 02:30:29;;;;;;;;;;;12.30;88.80;;;;;;5093698;28;19943;-92
2022/10/11 02:32:56;;;;;;;;;;;12.40;89.10;;;;;;5093552;28;19971;-93
2022/10/11 02:35:24;;;;;;;;;;;12.40;88.20;;;;;;5093598;28;19940;-93
2022/10/11 02:38:02;;;;;;;;;;;12.30;88.00;;;;;;5093392;28;20018;-93
2022/10/11 02:40:29;;;;;;;;;;;12.40;87.90;;;;;;5093503;28;19950;-93
2022/10/11 02:42:58;;;;;;;;;;;12.40;87.20;;;;;;5093585;28;19936;-93
2022/10/11 02:45:26;;;;;;;;;;;12.30;86.80;;;;;;5093495;28;19970;-92
2022/10/11 02:47:52;;;;;;;;;;;12.10;86.50;;;;;;5093574;28;19948;-93
2022/10/11 02:50:17;;;;;;;;;;;12.00;86.70;;;;;;5094831;28;19943;-93
2022/10/11 02:52:43;;;;;;;;;;;11.90;87.60;;;;;;5097230;28;19999;-93
2022/10/11 02:55:09;;;;;;;;;;;12.00;89.00;;;;;;5097299;28;19945;-92
2022/10/11 02:57:35;;;;;;;;;;;12.20;89.80;;;;;;5097348;28;19950;-92
2022/10/11 03:00:00;;;;;;;;;;;12.20;89.60;;;;;;5097108;28;19944;-92
2022/10/11 03:02:26;;;;;;;;;;;12.20;89.70;;;;;;5097068;28;19966;-92
2022/10/11 03:04:52;;;;;;;;;;;12.20;89.70;;;;;;5097073;28;20039;-94
2022/10/11 03:07:17;;;;;;;;;;;12.20;89.90;;;;;;5078845;28;19951;-92
2022/10/11 03:09:43;;;;;;;;;;;12.30;89.90;;;;;;5097260;28;19979;-93
2022/10/11 03:12:09;;;;;;;;;;;12.20;89.70;;;;;;5078808;28;20035;-93
2022/10/11 03:14:34;;;;;;;;;;;12.10;89.40;;;;;;5096999;28;20409;-93
2022/10/11 03:17:00;;;;;;;;;;;12.10;89.50;;;;;;5096933;28;20369;-92
2022/10/11 03:19:25;;;;;;;;;;;12.10;89.40;;;;;;5096886;28;20365;-93
2022/10/11 03:21:51;;;;;;;;;;;12.10;89.30;;;;;;5096700;28;19965;-94
2022/10/11 03:24:16;;;;;;;;;;;12.10;89.20;;;;;;5078777;28;19990;-92
2022/10/11 03:26:42;;;;;;;;;;;12.00;89.30;;;;;;5096816;28;20025;-93
2022/10/11 03:29:08;;;;;;;;;;;12.00;89.80;;;;;;5096711;28;19932;-93
2022/10/11 03:31:33;;;;;;;;;;;12.10;90.10;;;;;;5096567;28;19941;-93
2022/10/11 03:33:59;;;;;;;;;;;12.10;90.00;;;;;;5096589;28;19939;-92
2022/10/11 03:36:24;;;;;;;;;;;12.00;89.80;;;;;;5096540;28;20358;-92
2022/10/11 03:38:50;;;;;;;;;;;12.00;89.80;;;;;;5096330;28;20454;-93
2022/10/11 03:41:15;;;;;;;;;;;12.00;89.50;;;;;;5096370;28;19967;-92
2022/10/11 03:43:41;;;;;;;;;;;11.90;89.40;;;;;;5096420;28;19939;-92
2022/10/11 03:46:06;;;;;;;;;;;12.00;89.70;;;;;;5096239;28;20027;-93
2022/10/11 03:48:32;;;;;;;;;;;11.90;89.70;;;;;;5096245;28;19941;-93
2022/10/11 03:50:58;;;;;;;;;;;11.90;89.70;;;;;;5096014;28;19954;-92
2022/10/11 03:53:23;;;;;;;;;;;11.90;89.80;;;;;;5096243;28;19944;-92
2022/10/11 03:55:53;;;;;;;;;;;11.90;89.80;;;;;;5096107;28;20337;-93
2022/10/11 03:58:18;;;;;;;;;;;11.90;89.30;;;;;;5077877;28;20427;-92
2022/10/11 04:00:44;;;;;;;;;;;11.90;89.10;;;;;;5095922;28;20010;-92
2022/10/11 04:03:09;;;;;;;;;;;11.80;88.70;;;;;;5095235;28;20432;-92
2022/10/11 04:05:35;;;;;;;;;;;11.80;88.50;;;;;;5095967;28;19936;-92
2022/10/11 04:08:01;;;;;;;;;;;11.70;88.00;;;;;;5095937;28;19969;-91
2022/10/11 04:10:26;;;;;;;;;;;11.60;87.90;;;;;;5095871;28;19989;-92
2022/10/11 04:12:52;;;;;;;;;;;11.50;88.30;;;;;;5095856;28;19943;-91
2022/10/11 04:15:17;;;;;;;;;;;11.40;88.80;;;;;;5095734;28;19937;-91
2022/10/11 04:17:43;;;;;;;;;;;11.40;89.20;;;;;;5095682;28;19938;-92
2022/10/11 04:20:09;;;;;;;;;;;11.30;89.00;;;;;;5095604;28;19941;-94
2022/10/11 04:22:34;;;;;;;;;;;11.30;88.70;;;;;;5095814;28;20322;-92
2022/10/11 04:25:00;;;;;;;;;;;11.20;89.00;;;;;;5095458;28;20408;-91
2022/10/11 04:27:26;;;;;;;;;;;11.20;89.60;;;;;;5095311;28;19940;-91
2022/10/11 04:29:52;;;;;;;;;;;11.10;89.60;;;;;;5095535;28;19940;-93
2022/10/11 04:32:18;;;;;;;;;;;11.10;89.70;;;;;;5095380;28;20423;-92
2022/10/11 04:34:43;;;;;;;;;;;11.10;90.30;;;;;;5095297;28;19937;-92
2022/10/11 04:37:09;;;;;;;;;;;10.90;90.00;;;;;;5095284;28;19964;-91
2022/10/11 04:39:35;;;;;;;;;;;10.90;90.10;;;;;;5095090;28;20074;-92
2022/10/11 04:42:00;;;;;;;;;;;10.80;89.70;;;;;;5095234;28;19960;-92
2022/10/11 04:44:26;;;;;;;;;;;10.70;89.50;;;;;;5095088;28;19935;-92
2022/10/11 04:46:51;;;;;;;;;;;10.70;90.20;;;;;;5095161;28;19937;-91
2022/10/11 04:49:17;;;;;;;;;;;10.70;90.50;;;;;;5076726;28;19986;-92
2022/10/11 04:51:42;;;;;;;;;;;10.80;90.90;;;;;;5094836;28;19957;-92
2022/10/11 04:54:08;;;;;;;;;;;10.80;92.50;;;;;;5094858;28;20078;-91
2022/10/11 04:56:34;;;;;;;;;;;10.80;92.60;;;;;;5094485;28;20047;-91
2022/10/11 04:58:59;;;;;;;;;;;10.90;92.60;;;;;;5105495;28;19954;-92
2022/10/11 05:01:25;;;;;;;;;;;10.90;92.60;;;;;;5083014;28;20013;-92
2022/10/11 05:03:51;;;;;;;;;;;10.80;92.70;;;;;;5077947;28;20464;-92
2022/10/11 05:06:16;;;;;;;;;;;10.80;92.90;;;;;;5094516;28;19944;-91
2022/10/11 05:08:42;;;;;;;;;;;11.00;93.00;;;;;;5099804;28;19947;-91
2022/10/11 05:11:10;;;;;;;;;;;10.80;92.60;;;;;;5094328;28;19964;-90
2022/10/11 05:13:35;;;;;;;;;;;10.80;92.30;;;;;;5094947;28;19950;-91
2022/10/11 05:16:01;;;;;;;;;;;10.80;92.00;;;;;;5095053;28;19934;-89
2022/10/11 05:18:27;;;;;;;;;;;10.80;92.10;;;;;;5084502;28;20360;-90
2022/10/11 05:20:59;;;;;;;;;;;10.80;92.00;;;;;;5113766;28;20002;-90
2022/10/11 05:23:25;;;;;;;;;;;10.80;92.00;;;;;;5111891;28;19956;-91
2022/10/11 05:25:50;;;;;;;;;;;10.80;91.80;;;;;;5099283;28;20031;-91
2022/10/11 05:28:16;;;;;;;;;;;10.80;91.80;;;;;;5099496;28;19944;-91
2022/10/11 05:30:41;;;;;;;;;;;10.90;91.70;;;;;;5091092;28;19949;-90
2022/10/11 05:33:07;;;;;;;;;;;10.90;91.70;;;;;;5091368;28;19944;-90
2022/10/11 05:35:32;;;;;;;;;;;11.00;91.50;;;;;;5072143;28;19944;-90
2022/10/11 05:37:58;;;;;;;;;;;11.10;91.30;;;;;;5096341;22;19973;-90
2022/10/11 05:40:23;;;;;;;;;;;11.20;91.60;;;;;;5086777;28;19946;-91
2022/10/11 05:42:51;;;;;;;;;;;11.30;91.70;;;;;;5087542;28;20574;-89
2022/10/11 05:45:16;;;;;;;;;;;11.40;91.50;;;;;;5093083;28;19944;-91
2022/10/11 05:47:42;;;;;;;;;;;11.30;90.80;;;;;;5092233;28;19943;-90
2022/10/11 05:55:16;;;;;;;;;;;11.20;90.40;;;;;;5082757;27;19963;-89
2022/10/11 05:57:43;;;;;;;;;;;11.40;91.40;;;;;;5087342;28;20006;-89
2022/10/11 06:00:09;;;;;;;;;;;11.70;91.60;;;;;;5118742;27;19940;-90
2022/10/11 06:02:35;;;;;;;;;;;11.90;91.60;;;;;;5079404;28;19953;-90
2022/10/11 06:05:00;;;;;;;;;;;12.00;91.90;;;;;;5083957;28;19974;-90
2022/10/11 06:07:26;;;;;;;;;;;12.30;92.00;;;;;;5110712;28;19946;-88
2022/10/11 06:09:51;;;;;;;;;;;12.50;91.60;;;;;;5087556;28;19971;-88
2022/10/11 06:12:17;;;;;;;;;;;12.70;91.00;;;;;;5083760;28;19940;-90
2022/10/11 06:18:18;;;;;;;;;;;12.90;90.10;;;;;;5107881;27;20029;-90
2022/10/11 06:20:43;;;;;;;;;;;13.20;88.10;;;;;;5074224;28;19994;-89
2022/10/11 06:23:09;;;;;;;;;;;13.30;86.70;;;;;;5075695;28;19948;-89
2022/10/11 06:25:34;;;;;;;;;;;13.40;86.20;;;;;;5071193;28;19966;-90
2022/10/11 06:28:00;;;;;;;;;;;13.50;85.50;;;;;;5066296;28;19949;-88
2022/10/11 06:30:25;;;;;;;;;;;13.60;84.70;;;;;;5065313;28;19947;-90
2022/10/11 06:32:51;;;;;;;;;;;13.50;85.20;;;;;;5059210;28;19956;-91
2022/10/11 06:38:15;;;;;;;;;;;13.60;86.00;;;;;;5047568;27;20329;-91
2022/10/11 06:40:40;;;;;;;;;;;13.70;87.00;;;;;;5026214;28;19947;-90
2022/10/11 06:43:06;;;;;;;;;;;13.80;87.00;;;;;;5006313;28;19945;-91
2022/10/11 06:45:31;;;;;;;;;;;13.80;86.30;;;;;;5017602;28;20007;-90
2022/10/11 06:47:57;;;;;;;;;;;13.90;85.70;;;;;;5015455;28;19952;-90
2022/10/11 06:50:23;;;;;;;;;;;14.10;84.90;;;;;;5023909;28;19951;-86
2022/10/11 06:52:50;;;;;;;;;;;14.00;85.40;;;;;;5014749;28;19971;-96
2022/10/11 06:55:16;;;;;;;;;;;13.90;86.10;;;;;;5019801;28;19943;-94
2022/10/11 06:57:41;;;;;;;;;;;14.00;86.80;;;;;;5014757;28;19970;-89
2022/10/11 07:00:07;;;;;;;;;;;14.30;87.00;;;;;;5007497;28;19949;-90
2022/10/11 07:02:32;;;;;;;;;;;14.50;85.80;;;;;;5076602;28;20424;-89
2022/10/11 07:04:58;;;;;;;;;;;14.70;84.00;;;;;;5008892;28;20348;-88
2022/10/11 07:07:24;;;;;;;;;;;14.60;83.90;;;;;;5078708;28;20337;-89
2022/10/11 07:09:49;;;;;;;;;;;14.80;83.60;;;;;;5078645;28;20371;-89
2022/10/11 07:12:15;;;;;;;;;;;14.80;83.50;;;;;;5011779;28;20337;-89
2022/10/11 07:14:41;;;;;;;;;;;14.80;84.50;;;;;;5011716;28;20078;-90
2022/10/11 07:17:07;;;;;;;;;;;14.80;85.30;;;;;;5081332;28;20075;-90
2022/10/11 07:19:32;;;;;;;;;;;14.80;85.50;;;;;;5010656;28;20330;-90
2022/10/11 07:21:58;;;;;;;;;;;14.80;85.50;;;;;;4999784;28;19972;-90
2022/10/11 07:24:23;;;;;;;;;;;14.90;85.80;;;;;;5004840;28;19955;-90
2022/10/11 07:26:49;;;;;;;;;;;15.00;85.60;;;;;;5080289;28;19947;-89
2022/10/11 07:29:14;;;;;;;;;;;15.20;85.00;;;;;;5011787;28;19976;-89
2022/10/11 07:31:41;;;;;;;;;;;15.20;84.50;;;;;;5022600;28;19947;-90
2022/10/11 07:34:06;;;;;;;;;;;15.30;84.00;;;;;;5010706;28;19957;-89
2022/10/11 07:36:32;;;;;;;;;;;15.30;84.10;;;;;;5012334;28;19976;-90
2022/10/11 07:38:57;;;;;;;;;;;15.40;84.80;;;;;;5012428;28;20436;-89
2022/10/11 07:41:23;;;;;;;;;;;15.50;85.10;;;;;;5011997;28;21690;-88
2022/10/11 07:43:49;;;;;;;;;;;15.70;84.40;;;;;;5014796;28;19948;-88
2022/10/11 07:46:17;;;;;;;;;;;15.80;83.90;;;;;;5009870;28;20325;-89
2022/10/11 07:48:43;;;;;;;;;;;16.20;82.60;;;;;;5016917;28;19986;-88
2022/10/11 07:51:19;;;;;;;;;;;16.20;82.60;;;;;;5000154;28;20004;-89
2022/10/11 07:53:46;;;;;;;;;;;16.30;82.30;;;;;;5080642;28;19949;-88
2022/10/11 07:56:13;;;;;;;;;;;16.30;83.00;;;;;;4993651;28;20024;-89
2022/10/11 07:58:39;;;;;;;;;;;16.30;83.40;;;;;;5010701;28;19947;-88
2022/10/11 08:01:05;;;;;;;;;;;16.40;83.40;;;;;;4996519;28;19987;-88
2022/10/11 08:03:31;;;;;;;;;;;16.40;82.60;;;;;;5059274;28;19945;-88
2022/10/11 08:06:00;;;;;;;;;;;16.60;81.90;;;;;;4990479;28;19954;-89
2022/10/11 08:08:26;;;;;;;;;;;16.70;81.20;;;;;;4993135;28;19963;-90
2022/10/11 08:10:51;;;;;;;;;;;16.80;81.00;;;;;;4997816;28;20411;-88
2022/10/11 08:13:17;;;;;;;;;;;16.80;80.80;;;;;;5013160;28;19963;-89
2022/10/11 08:15:42;;;;;;;;;;;16.80;79.90;;;;;;5005377;28;20038;-90
2022/10/11 08:18:08;;;;;;;;;;;16.90;78.80;;;;;;4997648;28;20010;-89
2022/10/11 08:20:33;;;;;;;;;;;17.00;78.60;;;;;;4993830;28;20415;-88
2022/10/11 08:22:59;;;;;;;;;;;17.20;79.10;;;;;;4998214;28;19944;-88
2022/10/11 08:25:25;;;;;;;;;;;17.30;78.50;;;;;;4993293;28;19949;-88
2022/10/11 08:27:50;;;;;;;;;;;17.50;78.60;;;;;;5000520;28;19956;-89
2022/10/11 08:30:16;;;;;;;;;;;17.60;78.00;;;;;;4994649;28;20393;-88
2022/10/11 08:32:41;;;;;;;;;;;17.80;76.30;;;;;;4995980;28;19993;-88
2022/10/11 08:35:07;;;;;;;;;;;18.00;75.20;;;;;;5001726;28;19954;-88
2022/10/11 08:37:32;;;;;;;;;;;18.00;76.70;;;;;;4998397;28;20030;-88
2022/10/11 08:39:58;;;;;;;;;;;18.10;76.70;;;;;;5006121;28;19943;-89
2022/10/11 08:42:44;;;;;;;;;;;18.30;76.40;;;;;;5001201;28;19948;-89
2022/10/11 08:45:19;;;;;;;;;;;18.30;75.80;;;;;;4996402;28;19963;-89
2022/10/11 08:47:45;;;;;;;;;;;18.40;73.50;;;;;;5006762;28;19946;-89
2022/10/11 08:50:16;;;;;;;;;;;18.60;72.90;;;;;;5002610;28;19974;-87
2022/10/11 08:56:56;;;;;;;;;;;18.70;74.10;;;;;;5051543;27;20025;-91
2022/10/11 08:59:31;;;;;;;;;;;19.00;72.70;;;;;;5040855;28;19999;-94
2022/10/11 09:02:23;;;;;;;;;;;19.00;70.90;;;;;;5042521;28;19968;-95
2022/10/11 09:04:50;;;;;;;;;;;19.00;71.60;;;;;;5040217;27;20002;-89
2022/10/11 09:07:32;;;;;;;;;;;19.20;70.90;;;;;;5044294;27;20401;-93
2022/10/11 09:10:07;;;;;;;;;;;19.30;70.70;;;;;;5037738;27;19947;-96
2022/10/11 09:12:53;;;;;;;;;;;19.30;69.80;;;;;;5047591;28;19948;-95
2022/10/11 09:15:37;;;;;;;;;;;19.60;68.30;;;;;;5046220;27;19948;-95
2022/10/11 09:22:20;;;;;;;;;;;19.90;66.40;;;;;;5075435;27;2028860;-88
2022/10/11 09:24:58;;;;;;;;;;;20.10;65.10;;;;;;5123203;28;19953;-91
2022/10/11 09:30:08;;;;;;;;;;;20.00;65.10;;;;;;5077797;27;19944;-91
2022/10/11 09:52:47;;;;;;;;;;;20.40;64.90;;;;;;5066568;27;2039715;-91
2022/10/11 09:55:28;;;;;;;;;;;20.50;65.30;;;;;;5130566;27;20405;-91
2022/10/11 09:57:54;;;;;;;;;;;20.60;63.10;;;;;;5115134;27;20726;-91
2022/10/11 10:00:24;;;;;;;;;;;20.80;64.00;;;;;;5130646;27;19954;-92
2022/10/11 10:02:50;;;;;;;;;;;20.80;62.80;;;;;;5130297;27;19941;-91
2022/10/11 10:05:32;;;;;;;;;;;21.00;62.30;;;;;;5129565;27;20031;-92
2022/10/11 10:08:00;;;;;;;;;;;21.10;61.00;;;;;;5129860;28;19987;-92
2022/10/11 10:10:28;;;;;;;;;;;21.20;60.70;;;;;;5130605;28;19997;-92
2022/10/11 10:12:58;;;;;;;;;;;21.30;60.00;;;;;;5130015;28;19952;-91
2022/10/11 10:15:29;;;;;;;;;;;21.40;59.50;;;;;;5131151;28;19942;-92
2022/10/11 10:17:55;;;;;;;;;;;21.50;59.60;;;;;;5130778;28;19950;-92
2022/10/11 10:20:26;;;;;;;;;;;21.70;60.20;;;;;;5112463;28;19940;-92
2022/10/11 10:22:51;;;;;;;;;;;21.90;58.20;;;;;;5130805;28;19950;-92
2022/10/11 10:25:28;;;;;;;;;;;22.20;58.00;;;;;;5130772;28;19948;-92
2022/10/11 10:27:56;;;;;;;;;;;22.40;58.10;;;;;;5130791;28;20377;-91
2022/10/11 10:30:21;;;;;;;;;;;22.30;58.10;;;;;;5130816;28;20029;-92
2022/10/11 10:32:56;;;;;;;;;;;22.30;59.60;;;;;;5130545;28;20036;-92
2022/10/11 10:35:25;;;;;;;;;;;22.40;57.50;;;;;;5111437;28;20050;-92
2022/10/11 10:38:04;;;;;;;;;;;22.50;58.20;;;;;;5130273;28;19977;-92
2022/10/11 10:40:35;;;;;;;;;;;22.30;57.10;;;;;;5131041;28;19940;-92
2022/10/11 10:43:01;;;;;;;;;;;22.20;58.20;;;;;;5123467;28;19981;-91
2022/10/11 10:45:32;;;;;;;;;;;22.10;56.40;;;;;;5129696;28;20547;-92
2022/10/11 10:48:16;;;;;;;;;;;22.30;57.40;;;;;;5130230;28;19949;-91
2022/10/11 10:50:57;;;;;;;;;;;22.30;58.20;;;;;;5130286;27;20010;-91
2022/10/11 10:53:26;;;;;;;;;;;22.30;59.40;;;;;;5129883;28;19946;-92
2022/10/11 10:56:05;;;;;;;;;;;22.40;58.50;;;;;;5130509;28;19937;-92
2022/10/11 10:58:33;;;;;;;;;;;22.60;56.90;;;;;;5130495;28;20038;-91
2022/10/11 11:01:08;;;;;;;;;;;22.80;56.40;;;;;;5126874;28;19955;-92
2022/10/11 11:03:49;;;;;;;;;;;23.10;54.50;;;;;;5119510;28;19954;-91
2022/10/11 11:06:31;;;;;;;;;;;22.90;55.90;;;;;;5116518;28;19951;-91
2022/10/11 11:09:10;;;;;;;;;;;22.80;55.20;;;;;;5115534;28;19967;-91
2022/10/11 11:11:45;;;;;;;;;;;22.80;57.20;;;;;;5097575;28;19973;-93
2022/10/11 11:14:13;;;;;;;;;;;22.80;55.60;;;;;;5106662;28;19995;-92
2022/10/11 11:16:43;;;;;;;;;;;23.10;56.00;;;;;;5110328;28;19996;-92
2022/10/11 11:19:21;;;;;;;;;;;23.50;53.80;;;;;;5111515;28;19951;-91
2022/10/11 11:21:49;;;;;;;;;;;23.80;54.10;;;;;;5097540;28;19994;-92
2022/10/11 11:24:19;;;;;;;;;;;24.10;52.60;;;;;;5113033;28;19945;-92
2022/10/11 11:26:48;;;;;;;;;;;24.50;53.40;;;;;;5115758;28;19949;-93
2022/10/11 11:29:22;;;;;;;;;;;24.90;50.10;;;;;;5113850;28;19989;-92
2022/10/11 11:31:55;;;;;;;;;;;25.40;47.50;;;;;;5101529;28;19966;-92
2022/10/11 11:34:23;;;;;;;;;;;25.70;46.00;;;;;;5108073;28;19995;-88
2022/10/11 11:37:08;;;;;;;;;;;25.80;45.40;;;;;;5120727;27;19949;-87
2022/10/11 11:39:42;;;;;;;;;;;25.70;47.20;;;;;;5108801;28;19962;-89
2022/10/11 11:42:10;;;;;;;;;;;25.80;46.20;;;;;;5107909;28;19965;-86
2022/10/11 11:44:41;;;;;;;;;;;25.70;47.20;;;;;;5112820;28;19988;-90
2022/10/11 11:47:10;;;;;;;;;;;25.50;47.60;;;;;;5125616;27;19948;-87
2022/10/11 11:49:43;;;;;;;;;;;25.20;49.10;;;;;;5113217;28;20449;-88
2022/10/11 11:52:13;;;;;;;;;;;25.20;48.50;;;;;;5110745;28;20035;-87
2022/10/11 11:54:51;;;;;;;;;;;25.20;48.10;;;;;;5113538;28;20005;-88
2022/10/11 11:57:27;;;;;;;;;;;25.10;47.70;;;;;;5121553;27;19947;-89
2022/10/11 12:00:03;;;;;;;;;;;25.00;48.00;;;;;;5112178;28;19950;-87
2022/10/11 12:02:49;;;;;;;;;;;24.80;48.40;;;;;;5105675;28;19954;-91
2022/10/11 12:05:16;;;;;;;;;;;25.10;48.60;;;;;;5093361;28;20310;-92
2022/10/11 12:11:39;;;;;;;;;;;25.50;46.70;;;;;;4996728;28;20408;-90
2022/10/11 12:14:14;;;;;;;;;;;25.80;46.20;;;;;;4998757;28;19997;-89
2022/10/11 12:17:57;;;;;;;;;;;25.60;47.60;;;;;;5089030;27;20651;-90
2022/10/11 12:20:30;;;;;;;;;;;26.10;47.20;;;;;;5076990;28;20010;-90
2022/10/11 12:23:51;;;;;;;;;;;26.60;44.40;;;;;;5102997;27;19949;-89
2022/10/11 12:26:16;;;;;;;;;;;27.00;44.60;;;;;;5100725;28;19951;-91
2022/10/11 12:28:42;;;;;;;;;;;26.80;43.80;;;;;;5104907;28;19950;-90
2022/10/11 12:31:19;;;;;;;;;;;27.20;43.10;;;;;;5096869;28;19959;-91
2022/10/11 12:33:45;;;;;;;;;;;27.60;41.80;;;;;;5096614;28;19952;-92
2022/10/11 12:36:29;;;;;;;;;;;28.00;41.20;;;;;;5110255;28;19941;-91
2022/10/11 12:39:13;;;;;;;;;;;28.70;40.40;;;;;;5097891;28;20338;-91
2022/10/11 12:41:52;;;;;;;;;;;29.20;40.00;;;;;;5095759;28;19963;-91
2022/10/11 12:44:17;;;;;;;;;;;30.20;37.40;;;;;;5099983;28;20035;-90
2022/10/11 12:46:49;;;;;;;;;;;30.90;35.90;;;;;;5099189;28;19955;-90
2022/10/11 12:49:27;;;;;;;;;;;31.20;35.90;;;;;;5095601;28;19994;-90
2022/10/11 12:52:00;;;;;;;;;;;31.30;35.50;;;;;;5095160;28;19955;-90
2022/10/11 12:54:38;;;;;;;;;;;31.40;35.30;;;;;;5081170;28;19953;-90
2022/10/11 12:57:22;;;;;;;;;;;31.20;35.10;;;;;;5091810;28;19955;-90
2022/10/11 12:59:48;;;;;;;;;;;31.20;35.20;;;;;;5083276;28;19947;-91
2022/10/11 13:02:25;;;;;;;;;;;30.60;35.70;;;;;;5085115;28;20467;-92
2022/10/11 13:04:50;;;;;;;;;;;30.50;35.90;;;;;;5090166;28;20008;-90
2022/10/11 13:07:22;;;;;;;;;;;30.00;36.60;;;;;;5092286;28;19949;-90
2022/10/11 13:09:51;;;;;;;;;;;29.80;37.60;;;;;;5102930;28;19944;-91
2022/10/11 13:12:18;;;;;;;;;;;29.60;37.50;;;;;;5084940;28;20368;-90
2022/10/11 13:14:59;;;;;;;;;;;29.20;38.10;;;;;;5083479;28;19947;-90
2022/10/11 13:17:28;;;;;;;;;;;28.70;39.30;;;;;;5088392;28;19946;-90
2022/10/11 13:20:01;;;;;;;;;;;27.40;41.30;;;;;;5089321;28;19950;-90
2022/10/11 13:22:27;;;;;;;;;;;26.20;43.30;;;;;;5085277;28;20021;-89
2022/10/11 13:24:56;;;;;;;;;;;25.80;45.60;;;;;;5091792;28;19982;-89
2022/10/11 13:27:23;;;;;;;;;;;25.60;45.40;;;;;;5084424;28;20453;-91
2022/10/11 13:29:50;;;;;;;;;;;25.90;44.80;;;;;;5087027;28;19968;-90
2022/10/11 13:32:18;;;;;;;;;;;26.20;44.40;;;;;;5083450;28;19946;-90
2022/10/11 13:34:47;;;;;;;;;;;26.60;43.90;;;;;;5073455;28;19948;-90
2022/10/11 13:37:21;;;;;;;;;;;27.00;43.10;;;;;;5068259;28;19951;-91
2022/10/11 13:39:47;;;;;;;;;;;27.40;42.50;;;;;;5071268;28;19957;-90
2022/10/11 13:42:14;;;;;;;;;;;27.30;40.90;;;;;;5071729;28;20446;-90
2022/10/11 13:44:40;;;;;;;;;;;27.10;42.50;;;;;;5071618;28;20086;-91
2022/10/11 13:47:09;;;;;;;;;;;27.70;41.20;;;;;;5065354;28;19951;-91
2022/10/11 13:49:36;;;;;;;;;;;28.50;40.10;;;;;;5070289;28;19946;-92
2022/10/11 13:52:17;;;;;;;;;;;28.90;39.90;;;;;;5067687;28;19948;-91
2022/10/11 13:54:52;;;;;;;;;;;29.10;40.00;;;;;;5070599;28;20030;-90
2022/10/11 13:57:18;;;;;;;;;;;29.40;39.20;;;;;;5074407;28;19939;-90
2022/10/11 13:59:43;;;;;;;;;;;29.80;38.00;;;;;;5073853;28;19963;-91
2022/10/11 14:02:16;;;;;;;;;;;29.70;37.60;;;;;;5071983;28;19964;-91
2022/10/11 14:06:57;;;;;;;;;;;29.90;37.90;;;;;;5128192;27;19959;-89
2022/10/11 14:09:25;;;;;;;;;;;29.70;37.80;;;;;;5111553;28;19951;-90
2022/10/11 14:11:51;;;;;;;;;;;30.20;37.50;;;;;;5109979;28;20051;-90
2022/10/11 14:14:31;;;;;;;;;;;30.50;36.80;;;;;;5108573;28;20532;-90
2022/10/11 14:17:03;;;;;;;;;;;30.30;36.50;;;;;;5109029;28;19995;-90
2022/10/11 14:19:28;;;;;;;;;;;30.10;37.40;;;;;;5109563;28;19952;-90
2022/10/11 14:21:54;;;;;;;;;;;29.70;37.80;;;;;;5112761;28;19949;-90
2022/10/11 14:24:20;;;;;;;;;;;30.40;37.50;;;;;;5101434;28;20428;-89
2022/10/11 14:26:48;;;;;;;;;;;30.90;36.30;;;;;;5109100;28;19947;-94
2022/10/11 14:29:19;;;;;;;;;;;31.20;35.70;;;;;;5102119;28;19944;-91
2022/10/11 14:31:45;;;;;;;;;;;30.90;37.10;;;;;;5106680;28;20027;-90
2022/10/11 14:34:18;;;;;;;;;;;30.70;35.60;;;;;;5109383;28;20043;-91
2022/10/11 14:36:44;;;;;;;;;;;30.10;38.10;;;;;;5110347;28;19986;-89
2022/10/11 14:39:12;;;;;;;;;;;30.50;36.50;;;;;;5108224;28;20761;-89
2022/10/11 14:41:38;;;;;;;;;;;30.60;36.90;;;;;;5111078;28;19987;-89
2022/10/11 14:44:03;;;;;;;;;;;30.30;38.40;;;;;;5105733;28;19987;-89
2022/10/11 14:46:29;;;;;;;;;;;30.50;37.50;;;;;;5124838;28;20423;-91
2022/10/11 14:48:55;;;;;;;;;;;30.90;36.20;;;;;;5119086;28;19940;-90
2022/10/11 14:51:22;;;;;;;;;;;31.20;36.30;;;;;;5105453;28;20070;-91
2022/10/11 14:53:47;;;;;;;;;;;31.60;35.30;;;;;;5105553;28;19940;-91
2022/10/11 14:56:13;;;;;;;;;;;31.70;34.90;;;;;;5101521;28;19943;-91
2022/10/11 14:58:40;;;;;;;;;;;31.10;36.20;;;;;;5106436;28;20461;-91
2022/10/11 15:01:08;;;;;;;;;;;30.70;36.20;;;;;;5098557;28;19943;-91
2022/10/11 15:03:34;;;;;;;;;;;30.50;36.50;;;;;;5107749;28;20039;-91
2022/10/11 15:06:00;;;;;;;;;;;30.00;37.70;;;;;;5119720;28;20029;-91
2022/10/11 15:08:26;;;;;;;;;;;30.20;37.50;;;;;;5117195;28;20029;-91
2022/10/11 15:10:51;;;;;;;;;;;30.00;37.90;;;;;;5114208;28;20483;-90
2022/10/11 15:13:17;;;;;;;;;;;29.90;37.70;;;;;;5104811;28;19958;-91
2022/10/11 15:15:42;;;;;;;;;;;29.80;38.60;;;;;;5107904;28;20308;-92
2022/10/11 15:18:11;;;;;;;;;;;30.20;37.80;;;;;;5091182;28;19952;-91